sensor_id;sensor_type;location;lat;lon;timestamp;temperature;humidity
14349;DHT22;7258;50.376;8.742;2023-05-19T00:01:36;8.20;99.90
14349;DHT22;7258;50.376;8.742;2023-05-19T00:03:48;8.10;99.90
14349;DHT22;7258;50.376;8.742;2023-05-19T00:05:53;8.10;99.90
14349;DHT22;7258;50.376;8.742;2023-05-19T00:07:59;8.20;99.90
14349;DHT22;7258;50.376;8.742;2023-05-19T00:10:03;8.20;99.90
14349;DHT22;7258;50.376;8.742;2023-05-19T00:12:07;8.10;99.90
14349;DHT22;7258;50.376;8.742;2023-05-19T00:14:11;8.10;99.90
14349;DHT22;7258;50.376;8.742;2023-05-19T00:16:14;8.10;99.90
14349;DHT22;7258;50.376;8.742;2023-05-19T00:18:17;8.10;99.90
14349;DHT22;7258;50.376;8.742;2023-05-19T00:20:21;8.10;99.90
14349;DHT22;7258;50.376;8.742;2023-05-19T00:22:24;8.10;99.90
14349;DHT22;7258;50.376;8.742;2023-05-19T00:24:28;8.00;99.90
14349;DHT22;7258;50.376;8.742;2023-05-19T00:26:31;7.90;99.90
14349;DHT22;7258;50.376;8.742;2023-05-19T00:28:34;7.90;99.90
14349;DHT22;7258;50.376;8.742;2023-05-19T00:30:37;7.80;99.90
14349;DHT22;7258;50.376;8.742;2023-05-19T00:32:40;7.80;99.90
14349;DHT22;7258;50.376;8.742;2023-05-19T00:34:43;7.70;99.90
14349;DHT22;7258;50.376;8.742;2023-05-19T00:36:48;7.70;99.90
14349;DHT22;7258;50.376;8.742;2023-05-19T00:38:51;7.70;99.90
14349;DHT22;7258;50.376;8.742;2023-05-19T00:40:55;7.70;99.90
14349;DHT22;7258;50.376;8.742;2023-05-19T00:42:58;7.70;99.90
14349;DHT22;7258;50.376;8.742;2023-05-19T00:45:01;7.70;99.90
14349;DHT22;7258;50.376;8.742;2023-05-19T00:47:04;7.60;99.90
14349;DHT22;7258;50.376;8.742;2023-05-19T00:49:07;7.60;99.90
14349;DHT22;7258;50.376;8.742;2023-05-19T00:51:11;7.60;99.90
14349;DHT22;7258;50.376;8.742;2023-05-19T00:53:17;7.50;99.90
14349;DHT22;7258;50.376;8.742;2023-05-19T00:55:21;7.50;99.90
14349;DHT22;7258;50.376;8.742;2023-05-19T00:57:26;7.60;99.90
14349;DHT22;7258;50.376;8.742;2023-05-19T00:59:30;7.50;99.90
14349;DHT22;7258;50.376;8.742;2023-05-19T01:01:32;7.50;99.90
14349;DHT22;7258;50.376;8.742;2023-05-19T01:03:36;7.50;99.90
14349;DHT22;7258;50.376;8.742;2023-05-19T01:05:41;7.50;99.90
14349;DHT22;7258;50.376;8.742;2023-05-19T01:07:45;7.40;99.90
14349;DHT22;7258;50.376;8.742;2023-05-19T01:09:52;7.40;99.90
14349;DHT22;7258;50.376;8.742;2023-05-19T01:11:56;7.40;99.90
14349;DHT22;7258;50.376;8.742;2023-05-19T01:14:00;7.40;99.90
14349;DHT22;7258;50.376;8.742;2023-05-19T01:16:08;7.30;99.90
14349;DHT22;7258;50.376;8.742;2023-05-19T01:18:20;7.30;99.90
14349;DHT22;7258;50.376;8.742;2023-05-19T01:20:32;7.30;99.90
14349;DHT22;7258;50.376;8.742;2023-05-19T01:22:52;7.20;99.90
14349;DHT22;7258;50.376;8.742;2023-05-19T01:28:04;7.20;99.90
14349;DHT22;7258;50.376;8.742;2023-05-19T01:30:24;7.20;99.90
14349;DHT22;7258;50.376;8.742;2023-05-19T01:32:28;7.20;99.90
14349;DHT22;7258;50.376;8.742;2023-05-19T01:34:33;7.20;99.90
14349;DHT22;7258;50.376;8.742;2023-05-19T01:36:41;7.10;99.90
14349;DHT22;7258;50.376;8.742;2023-05-19T01:38:49;7.20;99.90
14349;DHT22;7258;50.376;8.742;2023-05-19T01:40:53;7.10;99.90
14349;DHT22;7258;50.376;8.742;2023-05-19T01:42:58;7.10;99.90
14349;DHT22;7258;50.376;8.742;2023-05-19T01:45:03;7.10;99.90
14349;DHT22;7258;50.376;8.742;2023-05-19T01:47:09;7.10;99.90
14349;DHT22;7258;50.376;8.742;2023-05-19T01:49:12;7.10;99.90
14349;DHT22;7258;50.376;8.742;2023-05-19T01:51:15;7.10;99.90
14349;DHT22;7258;50.376;8.742;2023-05-19T01:53:18;7.10;99.90
14349;DHT22;7258;50.376;8.742;2023-05-19T01:55:22;7.00;99.90
14349;DHT22;7258;50.376;8.742;2023-05-19T01:57:32;7.00;99.90
14349;DHT22;7258;50.376;8.742;2023-05-19T01:59:44;7.00;99.90
14349;DHT22;7258;50.376;8.742;2023-05-19T02:01:52;7.00;99.90
14349;DHT22;7258;50.376;8.742;2023-05-19T02:04:11;7.00;99.90
14349;DHT22;7258;50.376;8.742;2023-05-19T02:06:21;7.00;99.90
14349;DHT22;7258;50.376;8.742;2023-05-19T02:08:36;7.00;99.90
14349;DHT22;7258;50.376;8.742;2023-05-19T02:10:44;7.00;99.90
14349;DHT22;7258;50.376;8.742;2023-05-19T02:12:51;7.10;99.90
14349;DHT22;7258;50.376;8.742;2023-05-19T02:15:03;7.10;99.90
14349;DHT22;7258;50.376;8.742;2023-05-19T02:17:07;7.20;99.90
14349;DHT22;7258;50.376;8.742;2023-05-19T02:19:24;7.20;99.90
14349;DHT22;7258;50.376;8.742;2023-05-19T02:21:28;7.20;99.90
14349;DHT22;7258;50.376;8.742;2023-05-19T02:23:31;7.20;99.90
14349;DHT22;7258;50.376;8.742;2023-05-19T02:25:34;7.20;99.90
14349;DHT22;7258;50.376;8.742;2023-05-19T02:27:37;7.20;99.90
14349;DHT22;7258;50.376;8.742;2023-05-19T02:29:40;7.20;99.90
14349;DHT22;7258;50.376;8.742;2023-05-19T02:31:43;7.20;99.90
14349;DHT22;7258;50.376;8.742;2023-05-19T02:33:46;7.20;99.90
14349;DHT22;7258;50.376;8.742;2023-05-19T02:35:50;7.20;99.90
14349;DHT22;7258;50.376;8.742;2023-05-19T02:37:53;7.10;99.90
14349;DHT22;7258;50.376;8.742;2023-05-19T02:39:56;7.20;99.90
14349;DHT22;7258;50.376;8.742;2023-05-19T02:41:59;7.20;99.90
14349;DHT22;7258;50.376;8.742;2023-05-19T02:44:03;7.20;99.90
14349;DHT22;7258;50.376;8.742;2023-05-19T02:46:06;7.10;99.90
14349;DHT22;7258;50.376;8.742;2023-05-19T02:48:09;7.10;99.90
14349;DHT22;7258;50.376;8.742;2023-05-19T02:50:12;7.10;99.90
14349;DHT22;7258;50.376;8.742;2023-05-19T02:52:16;7.00;99.90
14349;DHT22;7258;50.376;8.742;2023-05-19T02:54:19;7.00;99.90
14349;DHT22;7258;50.376;8.742;2023-05-19T02:56:22;7.00;99.90
14349;DHT22;7258;50.376;8.742;2023-05-19T02:58:24;6.90;99.90
14349;DHT22;7258;50.376;8.742;2023-05-19T03:00:27;6.90;99.90
14349;DHT22;7258;50.376;8.742;2023-05-19T03:02:31;6.80;99.90
14349;DHT22;7258;50.376;8.742;2023-05-19T03:04:35;6.80;99.90
14349;DHT22;7258;50.376;8.742;2023-05-19T03:06:42;6.70;99.90
14349;DHT22;7258;50.376;8.742;2023-05-19T03:08:47;6.70;99.90
14349;DHT22;7258;50.376;8.742;2023-05-19T03:10:50;6.60;99.90
14349;DHT22;7258;50.376;8.742;2023-05-19T03:12:57;6.60;99.90
14349;DHT22;7258;50.376;8.742;2023-05-19T03:15:05;6.50;99.90
14349;DHT22;7258;50.376;8.742;2023-05-19T03:17:09;6.50;99.90
14349;DHT22;7258;50.376;8.742;2023-05-19T03:19:12;6.50;99.90
14349;DHT22;7258;50.376;8.742;2023-05-19T03:21:15;6.50;99.90
14349;DHT22;7258;50.376;8.742;2023-05-19T03:23:18;6.50;99.90
14349;DHT22;7258;50.376;8.742;2023-05-19T03:25:22;6.50;99.90
14349;DHT22;7258;50.376;8.742;2023-05-19T03:27:25;6.60;99.90
14349;DHT22;7258;50.376;8.742;2023-05-19T03:29:28;6.60;99.90
14349;DHT22;7258;50.376;8.742;2023-05-19T03:31:31;6.50;99.90
14349;DHT22;7258;50.376;8.742;2023-05-19T03:33:34;6.50;99.90
14349;DHT22;7258;50.376;8.742;2023-05-19T03:35:37;6.50;99.90
14349;DHT22;7258;50.376;8.742;2023-05-19T03:37:39;6.40;99.90
14349;DHT22;7258;50.376;8.742;2023-05-19T03:39:42;6.40;99.90
14349;DHT22;7258;50.376;8.742;2023-05-19T03:41:47;6.40;99.90
14349;DHT22;7258;50.376;8.742;2023-05-19T03:43:50;6.40;99.90
14349;DHT22;7258;50.376;8.742;2023-05-19T03:45:53;6.40;99.90
14349;DHT22;7258;50.376;8.742;2023-05-19T03:47:57;6.40;99.90
14349;DHT22;7258;50.376;8.742;2023-05-19T03:50:00;6.40;99.90
14349;DHT22;7258;50.376;8.742;2023-05-19T03:52:03;6.40;99.90
14349;DHT22;7258;50.376;8.742;2023-05-19T03:54:06;6.40;99.90
14349;DHT22;7258;50.376;8.742;2023-05-19T03:56:09;6.40;99.90
14349;DHT22;7258;50.376;8.742;2023-05-19T03:58:16;6.40;99.90
14349;DHT22;7258;50.376;8.742;2023-05-19T04:00:19;6.50;99.90
14349;DHT22;7258;50.376;8.742;2023-05-19T04:02:22;6.50;99.90
14349;DHT22;7258;50.376;8.742;2023-05-19T04:04:25;6.50;99.90
14349;DHT22;7258;50.376;8.742;2023-05-19T04:06:28;6.50;99.90
14349;DHT22;7258;50.376;8.742;2023-05-19T04:08:31;6.50;99.90
14349;DHT22;7258;50.376;8.742;2023-05-19T04:10:34;6.50;99.90
14349;DHT22;7258;50.376;8.742;2023-05-19T04:12:37;6.60;99.90
14349;DHT22;7258;50.376;8.742;2023-05-19T04:14:42;6.60;99.90
14349;DHT22;7258;50.376;8.742;2023-05-19T04:16:45;6.70;99.90
14349;DHT22;7258;50.376;8.742;2023-05-19T04:18:48;6.70;99.90
14349;DHT22;7258;50.376;8.742;2023-05-19T04:20:51;6.70;99.90
14349;DHT22;7258;50.376;8.742;2023-05-19T04:22:54;6.80;99.90
14349;DHT22;7258;50.376;8.742;2023-05-19T04:24:57;6.80;99.90
14349;DHT22;7258;50.376;8.742;2023-05-19T04:27:01;6.80;99.90
14349;DHT22;7258;50.376;8.742;2023-05-19T04:29:05;6.90;99.90
14349;DHT22;7258;50.376;8.742;2023-05-19T04:31:09;7.00;99.90
14349;DHT22;7258;50.376;8.742;2023-05-19T04:33:13;7.10;99.90
14349;DHT22;7258;50.376;8.742;2023-05-19T04:35:16;7.10;99.90
14349;DHT22;7258;50.376;8.742;2023-05-19T04:37:20;7.20;99.90
14349;DHT22;7258;50.376;8.742;2023-05-19T04:39:22;7.20;99.90
14349;DHT22;7258;50.376;8.742;2023-05-19T04:41:26;7.20;99.90
14349;DHT22;7258;50.376;8.742;2023-05-19T04:43:29;7.30;99.90
14349;DHT22;7258;50.376;8.742;2023-05-19T04:45:32;7.30;99.90
14349;DHT22;7258;50.376;8.742;2023-05-19T04:47:36;7.40;99.90
14349;DHT22;7258;50.376;8.742;2023-05-19T04:49:42;7.40;99.90
14349;DHT22;7258;50.376;8.742;2023-05-19T04:51:45;7.50;99.90
14349;DHT22;7258;50.376;8.742;2023-05-19T04:53:50;7.60;99.90
14349;DHT22;7258;50.376;8.742;2023-05-19T04:55:56;7.60;99.90
14349;DHT22;7258;50.376;8.742;2023-05-19T04:58:01;7.70;99.90
14349;DHT22;7258;50.376;8.742;2023-05-19T05:00:05;7.70;99.90
14349;DHT22;7258;50.376;8.742;2023-05-19T05:02:13;7.80;99.90
14349;DHT22;7258;50.376;8.742;2023-05-19T05:04:18;7.90;99.90
14349;DHT22;7258;50.376;8.742;2023-05-19T05:06:22;7.90;99.90
14349;DHT22;7258;50.376;8.742;2023-05-19T05:08:25;8.00;99.90
14349;DHT22;7258;50.376;8.742;2023-05-19T05:10:28;8.00;99.90
14349;DHT22;7258;50.376;8.742;2023-05-19T05:12:32;8.10;99.90
14349;DHT22;7258;50.376;8.742;2023-05-19T05:14:36;8.10;99.90
14349;DHT22;7258;50.376;8.742;2023-05-19T05:16:41;8.20;99.90
14349;DHT22;7258;50.376;8.742;2023-05-19T05:18:45;8.20;99.90
14349;DHT22;7258;50.376;8.742;2023-05-19T05:20:51;8.20;99.90
14349;DHT22;7258;50.376;8.742;2023-05-19T05:23:20;8.30;99.90
14349;DHT22;7258;50.376;8.742;2023-05-19T05:25:24;8.30;99.90
14349;DHT22;7258;50.376;8.742;2023-05-19T05:27:27;8.30;99.90
14349;DHT22;7258;50.376;8.742;2023-05-19T05:29:29;8.40;99.90
14349;DHT22;7258;50.376;8.742;2023-05-19T05:31:32;8.40;99.90
14349;DHT22;7258;50.376;8.742;2023-05-19T05:33:36;8.50;99.90
14349;DHT22;7258;50.376;8.742;2023-05-19T05:35:40;8.60;99.90
14349;DHT22;7258;50.376;8.742;2023-05-19T05:37:44;8.60;99.90
14349;DHT22;7258;50.376;8.742;2023-05-19T05:39:47;8.70;99.90
14349;DHT22;7258;50.376;8.742;2023-05-19T05:41:50;8.80;99.90
14349;DHT22;7258;50.376;8.742;2023-05-19T05:43:52;8.90;99.90
14349;DHT22;7258;50.376;8.742;2023-05-19T05:45:55;9.00;99.90
14349;DHT22;7258;50.376;8.742;2023-05-19T05:47:59;9.10;99.90
14349;DHT22;7258;50.376;8.742;2023-05-19T05:50:02;9.20;99.90
14349;DHT22;7258;50.376;8.742;2023-05-19T05:52:07;9.30;99.90
14349;DHT22;7258;50.376;8.742;2023-05-19T05:54:15;9.40;99.90
14349;DHT22;7258;50.376;8.742;2023-05-19T05:56:19;9.40;99.90
14349;DHT22;7258;50.376;8.742;2023-05-19T05:58:22;9.50;99.90
14349;DHT22;7258;50.376;8.742;2023-05-19T06:00:25;9.60;99.90
14349;DHT22;7258;50.376;8.742;2023-05-19T06:02:28;9.70;99.90
14349;DHT22;7258;50.376;8.742;2023-05-19T06:04:31;9.80;99.90
14349;DHT22;7258;50.376;8.742;2023-05-19T06:06:34;9.80;99.90
14349;DHT22;7258;50.376;8.742;2023-05-19T06:08:38;9.90;99.90
14349;DHT22;7258;50.376;8.742;2023-05-19T06:10:42;10.00;99.90
14349;DHT22;7258;50.376;8.742;2023-05-19T06:12:48;10.10;99.90
14349;DHT22;7258;50.376;8.742;2023-05-19T06:14:51;10.20;99.90
14349;DHT22;7258;50.376;8.742;2023-05-19T06:16:54;10.40;99.90
14349;DHT22;7258;50.376;8.742;2023-05-19T06:18:56;10.40;99.90
14349;DHT22;7258;50.376;8.742;2023-05-19T06:21:00;10.60;99.90
14349;DHT22;7258;50.376;8.742;2023-05-19T06:23:04;10.80;99.90
14349;DHT22;7258;50.376;8.742;2023-05-19T06:25:07;10.90;99.90
14349;DHT22;7258;50.376;8.742;2023-05-19T06:27:12;11.00;99.90
14349;DHT22;7258;50.376;8.742;2023-05-19T06:29:15;11.20;99.90
14349;DHT22;7258;50.376;8.742;2023-05-19T06:31:20;11.30;99.90
14349;DHT22;7258;50.376;8.742;2023-05-19T06:33:23;11.50;99.90
14349;DHT22;7258;50.376;8.742;2023-05-19T06:35:29;11.50;99.90
14349;DHT22;7258;50.376;8.742;2023-05-19T06:37:33;11.60;99.90
14349;DHT22;7258;50.376;8.742;2023-05-19T06:39:37;11.80;99.90
14349;DHT22;7258;50.376;8.742;2023-05-19T06:41:39;12.00;99.90
14349;DHT22;7258;50.376;8.742;2023-05-19T06:43:44;12.10;99.90
14349;DHT22;7258;50.376;8.742;2023-05-19T06:45:47;12.20;99.90
14349;DHT22;7258;50.376;8.742;2023-05-19T06:47:50;12.30;99.90
14349;DHT22;7258;50.376;8.742;2023-05-19T06:49:53;12.50;99.90
14349;DHT22;7258;50.376;8.742;2023-05-19T06:51:56;12.60;99.90
14349;DHT22;7258;50.376;8.742;2023-05-19T06:53:59;12.80;99.90
14349;DHT22;7258;50.376;8.742;2023-05-19T06:56:02;12.90;99.90
14349;DHT22;7258;50.376;8.742;2023-05-19T06:58:05;13.10;99.90
14349;DHT22;7258;50.376;8.742;2023-05-19T07:00:11;13.10;99.90
14349;DHT22;7258;50.376;8.742;2023-05-19T07:02:32;13.20;99.90
14349;DHT22;7258;50.376;8.742;2023-05-19T07:04:35;13.30;99.90
14349;DHT22;7258;50.376;8.742;2023-05-19T07:06:38;13.40;99.90
14349;DHT22;7258;50.376;8.742;2023-05-19T07:08:40;13.50;99.90
14349;DHT22;7258;50.376;8.742;2023-05-19T07:10:43;13.60;99.90
14349;DHT22;7258;50.376;8.742;2023-05-19T07:12:47;13.60;99.90
14349;DHT22;7258;50.376;8.742;2023-05-19T07:14:50;13.70;99.90
14349;DHT22;7258;50.376;8.742;2023-05-19T07:16:54;13.70;99.90
14349;DHT22;7258;50.376;8.742;2023-05-19T07:18:57;13.70;99.90
14349;DHT22;7258;50.376;8.742;2023-05-19T07:21:01;13.80;99.90
14349;DHT22;7258;50.376;8.742;2023-05-19T07:23:03;13.90;99.90
14349;DHT22;7258;50.376;8.742;2023-05-19T07:25:07;13.90;99.90
14349;DHT22;7258;50.376;8.742;2023-05-19T07:27:10;13.90;99.90
14349;DHT22;7258;50.376;8.742;2023-05-19T07:29:13;13.90;99.90
14349;DHT22;7258;50.376;8.742;2023-05-19T07:31:16;13.90;99.90
14349;DHT22;7258;50.376;8.742;2023-05-19T07:33:21;14.00;99.90
14349;DHT22;7258;50.376;8.742;2023-05-19T07:35:25;14.10;99.90
14349;DHT22;7258;50.376;8.742;2023-05-19T07:37:28;14.10;99.90
14349;DHT22;7258;50.376;8.742;2023-05-19T07:39:32;14.10;99.90
14349;DHT22;7258;50.376;8.742;2023-05-19T07:41:35;14.20;99.90
14349;DHT22;7258;50.376;8.742;2023-05-19T07:43:38;14.30;99.90
14349;DHT22;7258;50.376;8.742;2023-05-19T07:45:41;14.40;99.90
14349;DHT22;7258;50.376;8.742;2023-05-19T07:47:44;14.60;99.90
14349;DHT22;7258;50.376;8.742;2023-05-19T07:49:48;14.80;99.90
14349;DHT22;7258;50.376;8.742;2023-05-19T07:51:53;14.90;99.90
14349;DHT22;7258;50.376;8.742;2023-05-19T07:53:59;15.10;99.90
14349;DHT22;7258;50.376;8.742;2023-05-19T07:56:03;15.30;99.90
14349;DHT22;7258;50.376;8.742;2023-05-19T07:58:06;15.50;99.90
14349;DHT22;7258;50.376;8.742;2023-05-19T08:00:10;15.60;99.90
14349;DHT22;7258;50.376;8.742;2023-05-19T08:02:13;15.60;99.80
14349;DHT22;7258;50.376;8.742;2023-05-19T08:04:16;15.60;99.90
14349;DHT22;7258;50.376;8.742;2023-05-19T08:06:20;15.80;99.90
14349;DHT22;7258;50.376;8.742;2023-05-19T08:08:24;16.00;99.70
14349;DHT22;7258;50.376;8.742;2023-05-19T08:10:27;16.10;98.50
14349;DHT22;7258;50.376;8.742;2023-05-19T08:12:30;16.20;98.80
14349;DHT22;7258;50.376;8.742;2023-05-19T08:14:33;16.40;98.80
14349;DHT22;7258;50.376;8.742;2023-05-19T08:16:36;16.50;98.70
14349;DHT22;7258;50.376;8.742;2023-05-19T08:18:39;16.50;98.20
14349;DHT22;7258;50.376;8.742;2023-05-19T08:20:42;16.40;97.10
14349;DHT22;7258;50.376;8.742;2023-05-19T08:22:46;16.30;97.20
14349;DHT22;7258;50.376;8.742;2023-05-19T08:24:49;16.40;97.20
14349;DHT22;7258;50.376;8.742;2023-05-19T08:26:52;16.50;97.10
14349;DHT22;7258;50.376;8.742;2023-05-19T08:28:55;16.70;97.80
14349;DHT22;7258;50.376;8.742;2023-05-19T08:30:58;17.00;96.90
14349;DHT22;7258;50.376;8.742;2023-05-19T08:33:01;17.20;96.60
14349;DHT22;7258;50.376;8.742;2023-05-19T08:35:05;17.50;96.00
14349;DHT22;7258;50.376;8.742;2023-05-19T08:37:08;17.70;96.10
14349;DHT22;7258;50.376;8.742;2023-05-19T08:39:13;18.00;95.10
14349;DHT22;7258;50.376;8.742;2023-05-19T08:41:18;18.20;94.10
14349;DHT22;7258;50.376;8.742;2023-05-19T08:43:22;18.20;93.50
14349;DHT22;7258;50.376;8.742;2023-05-19T08:45:25;18.20;93.40
14349;DHT22;7258;50.376;8.742;2023-05-19T08:47:29;18.00;92.80
14349;DHT22;7258;50.376;8.742;2023-05-19T08:49:36;17.90;92.80
14349;DHT22;7258;50.376;8.742;2023-05-19T08:51:49;17.80;93.60
14349;DHT22;7258;50.376;8.742;2023-05-19T08:54:01;17.80;93.70
14349;DHT22;7258;50.376;8.742;2023-05-19T08:56:10;17.80;93.30
14349;DHT22;7258;50.376;8.742;2023-05-19T08:58:15;17.90;93.40
14349;DHT22;7258;50.376;8.742;2023-05-19T09:00:21;17.90;92.70
14349;DHT22;7258;50.376;8.742;2023-05-19T09:02:24;18.00;92.20
14349;DHT22;7258;50.376;8.742;2023-05-19T09:04:29;18.00;92.50
14349;DHT22;7258;50.376;8.742;2023-05-19T09:06:32;18.10;92.70
14349;DHT22;7258;50.376;8.742;2023-05-19T09:08:35;18.30;92.70
14349;DHT22;7258;50.376;8.742;2023-05-19T09:10:38;18.50;92.80
14349;DHT22;7258;50.376;8.742;2023-05-19T09:12:44;18.80;93.20
14349;DHT22;7258;50.376;8.742;2023-05-19T09:14:48;18.90;90.90
14349;DHT22;7258;50.376;8.742;2023-05-19T09:16:51;19.00;91.20
14349;DHT22;7258;50.376;8.742;2023-05-19T09:18:57;19.10;90.00
14349;DHT22;7258;50.376;8.742;2023-05-19T09:21:02;19.10;90.20
14349;DHT22;7258;50.376;8.742;2023-05-19T09:23:05;19.00;90.20
14349;DHT22;7258;50.376;8.742;2023-05-19T09:25:17;19.10;90.10
14349;DHT22;7258;50.376;8.742;2023-05-19T09:27:21;19.00;90.00
14349;DHT22;7258;50.376;8.742;2023-05-19T09:29:25;18.80;90.40
14349;DHT22;7258;50.376;8.742;2023-05-19T09:31:31;18.70;90.20
14349;DHT22;7258;50.376;8.742;2023-05-19T09:33:35;18.60;91.20
14349;DHT22;7258;50.376;8.742;2023-05-19T09:35:38;18.70;91.00
14349;DHT22;7258;50.376;8.742;2023-05-19T09:37:42;18.70;91.10
14349;DHT22;7258;50.376;8.742;2023-05-19T09:39:45;18.90;91.50
14349;DHT22;7258;50.376;8.742;2023-05-19T09:41:51;18.80;90.80
14349;DHT22;7258;50.376;8.742;2023-05-19T09:43:54;18.80;91.00
14349;DHT22;7258;50.376;8.742;2023-05-19T09:46:03;18.80;91.10
14349;DHT22;7258;50.376;8.742;2023-05-19T09:48:06;18.80;91.20
14349;DHT22;7258;50.376;8.742;2023-05-19T09:50:11;18.80;91.60
14349;DHT22;7258;50.376;8.742;2023-05-19T09:52:14;18.90;91.50
14349;DHT22;7258;50.376;8.742;2023-05-19T09:54:20;19.00;91.20
14349;DHT22;7258;50.376;8.742;2023-05-19T09:56:23;19.10;91.30
14349;DHT22;7258;50.376;8.742;2023-05-19T09:58:30;19.10;90.90
14349;DHT22;7258;50.376;8.742;2023-05-19T10:00:36;19.10;91.80
14349;DHT22;7258;50.376;8.742;2023-05-19T10:02:42;19.20;90.90
14349;DHT22;7258;50.376;8.742;2023-05-19T10:04:46;19.20;90.20
14349;DHT22;7258;50.376;8.742;2023-05-19T10:06:50;19.20;89.60
14349;DHT22;7258;50.376;8.742;2023-05-19T10:08:55;19.20;90.50
14349;DHT22;7258;50.376;8.742;2023-05-19T10:10:58;19.30;90.00
14349;DHT22;7258;50.376;8.742;2023-05-19T10:13:02;19.20;89.60
14349;DHT22;7258;50.376;8.742;2023-05-19T10:15:09;19.20;89.70
14349;DHT22;7258;50.376;8.742;2023-05-19T10:17:14;19.10;88.10
14349;DHT22;7258;50.376;8.742;2023-05-19T10:19:20;19.20;89.50
14349;DHT22;7258;50.376;8.742;2023-05-19T10:21:23;19.40;89.90
14349;DHT22;7258;50.376;8.742;2023-05-19T10:23:26;19.40;88.50
14349;DHT22;7258;50.376;8.742;2023-05-19T10:25:30;19.50;88.20
14349;DHT22;7258;50.376;8.742;2023-05-19T10:27:35;19.60;88.20
14349;DHT22;7258;50.376;8.742;2023-05-19T10:29:41;19.70;88.30
14349;DHT22;7258;50.376;8.742;2023-05-19T10:31:46;19.80;86.80
14349;DHT22;7258;50.376;8.742;2023-05-19T10:34:04;19.80;86.30
14349;DHT22;7258;50.376;8.742;2023-05-19T10:36:32;19.90;85.20
14349;DHT22;7258;50.376;8.742;2023-05-19T10:38:49;19.90;84.70
14349;DHT22;7258;50.376;8.742;2023-05-19T10:41:01;19.90;84.60
14349;DHT22;7258;50.376;8.742;2023-05-19T10:43:29;20.00;84.50
14349;DHT22;7258;50.376;8.742;2023-05-19T10:45:43;20.10;85.10
14349;DHT22;7258;50.376;8.742;2023-05-19T10:47:49;20.10;82.90
14349;DHT22;7258;50.376;8.742;2023-05-19T10:49:52;20.10;85.40
14349;DHT22;7258;50.376;8.742;2023-05-19T10:51:57;20.00;85.00
14349;DHT22;7258;50.376;8.742;2023-05-19T10:54:01;20.00;83.70
14349;DHT22;7258;50.376;8.742;2023-05-19T10:56:04;20.10;84.00
14349;DHT22;7258;50.376;8.742;2023-05-19T10:58:10;20.20;84.30
14349;DHT22;7258;50.376;8.742;2023-05-19T11:00:26;20.30;84.40
14349;DHT22;7258;50.376;8.742;2023-05-19T11:02:38;20.40;84.60
14349;DHT22;7258;50.376;8.742;2023-05-19T11:04:45;20.60;85.50
14349;DHT22;7258;50.376;8.742;2023-05-19T11:06:52;20.70;85.90
14349;DHT22;7258;50.376;8.742;2023-05-19T11:08:59;20.80;85.20
14349;DHT22;7258;50.376;8.742;2023-05-19T11:11:12;21.00;84.50
14349;DHT22;7258;50.376;8.742;2023-05-19T11:13:18;21.00;84.00
14349;DHT22;7258;50.376;8.742;2023-05-19T11:15:25;21.10;84.70
14349;DHT22;7258;50.376;8.742;2023-05-19T11:17:28;21.00;82.10
14349;DHT22;7258;50.376;8.742;2023-05-19T11:19:34;20.90;83.70
14349;DHT22;7258;50.376;8.742;2023-05-19T11:21:41;20.80;84.20
14349;DHT22;7258;50.376;8.742;2023-05-19T11:23:44;20.60;83.50
14349;DHT22;7258;50.376;8.742;2023-05-19T11:25:50;20.50;84.70
14349;DHT22;7258;50.376;8.742;2023-05-19T11:27:54;20.60;85.20
14349;DHT22;7258;50.376;8.742;2023-05-19T11:29:59;20.60;85.90
14349;DHT22;7258;50.376;8.742;2023-05-19T11:32:13;20.80;85.90
14349;DHT22;7258;50.376;8.742;2023-05-19T11:34:17;20.80;83.70
14349;DHT22;7258;50.376;8.742;2023-05-19T11:36:20;20.80;84.80
14349;DHT22;7258;50.376;8.742;2023-05-19T11:38:23;21.00;83.60
14349;DHT22;7258;50.376;8.742;2023-05-19T11:40:28;21.10;82.60
14349;DHT22;7258;50.376;8.742;2023-05-19T11:42:33;21.20;81.60
14349;DHT22;7258;50.376;8.742;2023-05-19T11:44:36;21.20;83.50
14349;DHT22;7258;50.376;8.742;2023-05-19T11:46:42;21.40;82.60
14349;DHT22;7258;50.376;8.742;2023-05-19T11:48:46;21.60;83.40
14349;DHT22;7258;50.376;8.742;2023-05-19T11:50:49;21.80;83.00
14349;DHT22;7258;50.376;8.742;2023-05-19T11:52:53;21.80;81.40
14349;DHT22;7258;50.376;8.742;2023-05-19T11:54:59;21.80;80.70
14349;DHT22;7258;50.376;8.742;2023-05-19T11:57:03;21.80;82.00
14349;DHT22;7258;50.376;8.742;2023-05-19T11:59:07;22.10;82.70
14349;DHT22;7258;50.376;8.742;2023-05-19T12:01:10;22.10;82.40
14349;DHT22;7258;50.376;8.742;2023-05-19T12:03:13;22.20;81.70
14349;DHT22;7258;50.376;8.742;2023-05-19T12:05:20;22.40;82.60
14349;DHT22;7258;50.376;8.742;2023-05-19T12:07:24;22.40;81.30
14349;DHT22;7258;50.376;8.742;2023-05-19T12:09:27;22.50;82.10
14349;DHT22;7258;50.376;8.742;2023-05-19T12:11:30;22.60;81.90
14349;DHT22;7258;50.376;8.742;2023-05-19T12:13:34;22.70;80.80
14349;DHT22;7258;50.376;8.742;2023-05-19T12:15:38;22.60;79.60
14349;DHT22;7258;50.376;8.742;2023-05-19T12:17:41;22.60;78.90
14349;DHT22;7258;50.376;8.742;2023-05-19T12:19:47;22.80;79.30
14349;DHT22;7258;50.376;8.742;2023-05-19T12:21:51;23.10;79.40
14349;DHT22;7258;50.376;8.742;2023-05-19T12:23:54;23.10;79.30
14349;DHT22;7258;50.376;8.742;2023-05-19T12:25:58;22.90;78.70
14349;DHT22;7258;50.376;8.742;2023-05-19T12:28:01;22.80;79.40
14349;DHT22;7258;50.376;8.742;2023-05-19T12:30:06;22.80;78.90
14349;DHT22;7258;50.376;8.742;2023-05-19T12:32:10;22.70;78.80
14349;DHT22;7258;50.376;8.742;2023-05-19T12:34:14;22.60;79.30
14349;DHT22;7258;50.376;8.742;2023-05-19T12:36:17;22.40;80.30
14349;DHT22;7258;50.376;8.742;2023-05-19T12:38:21;22.50;81.50
14349;DHT22;7258;50.376;8.742;2023-05-19T12:40:24;22.50;80.10
14349;DHT22;7258;50.376;8.742;2023-05-19T12:42:28;22.60;80.80
14349;DHT22;7258;50.376;8.742;2023-05-19T12:44:35;22.70;80.40
14349;DHT22;7258;50.376;8.742;2023-05-19T12:46:39;22.80;81.40
14349;DHT22;7258;50.376;8.742;2023-05-19T12:48:46;22.80;81.50
14349;DHT22;7258;50.376;8.742;2023-05-19T12:50:51;22.80;80.80
14349;DHT22;7258;50.376;8.742;2023-05-19T12:52:56;22.90;82.10
14349;DHT22;7258;50.376;8.742;2023-05-19T12:55:03;22.90;80.60
14349;DHT22;7258;50.376;8.742;2023-05-19T12:57:09;22.90;79.70
14349;DHT22;7258;50.376;8.742;2023-05-19T12:59:22;22.60;81.40
14349;DHT22;7258;50.376;8.742;2023-05-19T13:01:54;22.50;81.20
14349;DHT22;7258;50.376;8.742;2023-05-19T13:03:59;22.30;82.00
14349;DHT22;7258;50.376;8.742;2023-05-19T13:06:07;22.30;81.60
14349;DHT22;7258;50.376;8.742;2023-05-19T13:08:11;22.20;82.40
14349;DHT22;7258;50.376;8.742;2023-05-19T13:10:15;22.00;82.50
14349;DHT22;7258;50.376;8.742;2023-05-19T13:12:18;22.00;82.80
14349;DHT22;7258;50.376;8.742;2023-05-19T13:14:21;22.10;83.10
14349;DHT22;7258;50.376;8.742;2023-05-19T13:16:25;22.20;83.20
14349;DHT22;7258;50.376;8.742;2023-05-19T13:18:30;22.20;82.80
14349;DHT22;7258;50.376;8.742;2023-05-19T13:20:39;22.30;82.80
14349;DHT22;7258;50.376;8.742;2023-05-19T13:22:42;22.40;82.70
14349;DHT22;7258;50.376;8.742;2023-05-19T13:24:45;22.40;83.70
14349;DHT22;7258;50.376;8.742;2023-05-19T13:26:48;22.40;82.70
14349;DHT22;7258;50.376;8.742;2023-05-19T13:28:53;22.30;82.60
14349;DHT22;7258;50.376;8.742;2023-05-19T13:30:57;22.20;83.70